Time;durP1;ratioP1;P1;durP2;ratioP2;P2;SDS_P1;SDS_P2;PMS_P1;PMS_P2;Temp;Humidity;BMP_temperature;BMP_pressure;BME280_temperature;BME280_humidity;BME280_pressure;Samples;Min_cycle;Max_cycle;Signal;HPM_P1;HPM_P2
2021/07/24 00:00:52;;;;;;;14.63;11.32;;;;;;;;;;4937700;29;20043;-76
2021/07/24 00:03:19;;;;;;;14.07;11.40;;;;;;;;;;4937427;29;20107;-77
2021/07/24 00:05:46;;;;;;;15.00;11.93;;;;;;;;;;4936799;29;20099;-77
2021/07/24 00:08:14;;;;;;;16.63;11.50;;;;;;;;;;4937387;29;20106;-77
2021/07/24 00:10:41;;;;;;;15.68;10.57;;;;;;;;;;4937140;29;20454;-77
2021/07/24 00:13:07;;;;;;;15.65;11.57;;;;;;;;;;4937146;29;20457;-77
2021/07/24 00:15:35;;;;;;;15.43;12.50;;;;;;;;;;4936390;29;20424;-76
2021/07/24 00:18:02;;;;;;;16.25;11.95;;;;;;;;;;4937342;29;20051;-77
2021/07/24 00:20:29;;;;;;;17.88;12.65;;;;;;;;;;4937070;29;20417;-77
2021/07/24 00:22:55;;;;;;;18.02;12.48;;;;;;;;;;4937282;29;20095;-76
2021/07/24 00:25:24;;;;;;;15.43;11.80;;;;;;;;;;4935324;29;20227;-76
2021/07/24 00:27:50;;;;;;;16.05;11.57;;;;;;;;;;4937325;29;20048;-77
2021/07/24 00:30:17;;;;;;;19.13;12.55;;;;;;;;;;4936755;29;20492;-77
2021/07/24 00:32:44;;;;;;;14.13;11.88;;;;;;;;;;4936865;29;20055;-76
2021/07/24 00:35:11;;;;;;;15.38;11.65;;;;;;;;;;4936224;29;20497;-77
2021/07/24 00:37:38;;;;;;;16.70;12.20;;;;;;;;;;4936440;29;20515;-77
2021/07/24 00:40:05;;;;;;;15.13;11.60;;;;;;;;;;4937077;29;20051;-77
2021/07/24 00:42:34;;;;;;;17.08;12.60;;;;;;;;;;4936499;29;20424;-76
2021/07/24 00:45:04;;;;;;;13.82;11.68;;;;;;;;;;4936418;29;20052;-76
2021/07/24 00:47:35;;;;;;;17.08;12.05;;;;;;;;;;4936537;29;20560;-76
2021/07/24 00:50:02;;;;;;;14.93;10.98;;;;;;;;;;4937236;29;20047;-77
2021/07/24 00:52:30;;;;;;;15.45;12.07;;;;;;;;;;4936393;29;20465;-76
2021/07/24 00:54:57;;;;;;;14.38;11.20;;;;;;;;;;4936053;29;20111;-77
2021/07/24 00:57:24;;;;;;;14.85;11.57;;;;;;;;;;4936346;29;20493;-77
2021/07/24 00:59:52;;;;;;;15.38;11.82;;;;;;;;;;4936599;29;20087;-77
2021/07/24 01:02:18;;;;;;;16.15;12.02;;;;;;;;;;4957927;23;20094;-78
2021/07/24 01:04:45;;;;;;;15.32;11.98;;;;;;;;;;4977945;28;20054;-78
2021/07/24 01:07:12;;;;;;;15.73;11.68;;;;;;;;;;4978649;28;20458;-77
2021/07/24 01:09:39;;;;;;;15.27;11.90;;;;;;;;;;4977743;28;20051;-78
2021/07/24 01:12:07;;;;;;;15.85;11.98;;;;;;;;;;4971185;28;20497;-79
2021/07/24 01:14:34;;;;;;;14.48;11.30;;;;;;;;;;4960178;28;20051;-78
2021/07/24 01:17:03;;;;;;;16.02;11.38;;;;;;;;;;4959448;29;20107;-78
2021/07/24 01:19:29;;;;;;;16.38;11.85;;;;;;;;;;4959910;29;20102;-77
2021/07/24 01:21:58;;;;;;;14.85;11.32;;;;;;;;;;4960032;29;20555;-78
2021/07/24 01:25:08;;;;;;;15.60;11.68;;;;;;;;;;4959878;29;20580;-78
2021/07/24 01:27:41;;;;;;;;;;;;;;;;;;4954443;29;20531;-77
2021/07/24 01:30:08;;;;;;;14.70;11.10;;;;;;;;;;4958059;29;20441;-78
2021/07/24 01:36:39;;;;;;;15.27;11.52;;;;;;;;;;4952163;28;20046;-78
2021/07/24 01:39:08;;;;;;;15.57;11.55;;;;;;;;;;4934982;29;20521;-77
2021/07/24 01:41:35;;;;;;;15.43;12.73;;;;;;;;;;4935627;29;20572;-77
2021/07/24 01:44:01;;;;;;;14.57;11.63;;;;;;;;;;4936013;29;20197;-77
2021/07/24 01:46:28;;;;;;;15.38;11.77;;;;;;;;;;4935811;29;20083;-78
2021/07/24 01:49:05;;;;;;;15.93;11.85;;;;;;;;;;4937086;29;20142;-77
2021/07/24 01:54:30;;;;;;;16.65;11.65;;;;;;;;;;4960364;28;20080;-78
2021/07/24 01:56:57;;;;;;;19.23;12.73;;;;;;;;;;4959970;28;20035;-77
2021/07/24 01:59:33;;;;;;;16.90;12.68;;;;;;;;;;4957640;29;20031;-77
2021/07/24 02:02:01;;;;;;;15.70;12.50;;;;;;;;;;4970522;29;20043;-77
2021/07/24 02:04:29;;;;;;;16.63;12.35;;;;;;;;;;4959600;28;20089;-77
2021/07/24 02:06:56;;;;;;;16.33;12.13;;;;;;;;;;4954561;28;20086;-77
2021/07/24 02:09:23;;;;;;;18.80;12.68;;;;;;;;;;4957106;28;20130;-78
2021/07/24 02:11:52;;;;;;;14.98;12.45;;;;;;;;;;4954337;28;20081;-78
2021/07/24 02:14:19;;;;;;;16.58;12.85;;;;;;;;;;4954036;29;20087;-78
2021/07/24 02:16:46;;;;;;;15.95;12.07;;;;;;;;;;4953597;29;20133;-77
2021/07/24 02:19:13;;;;;;;15.02;11.88;;;;;;;;;;4954612;29;20142;-78
2021/07/24 02:21:40;;;;;;;16.67;11.68;;;;;;;;;;4954066;29;20500;-77
2021/07/24 02:24:06;;;;;;;15.48;11.57;;;;;;;;;;4954072;29;20085;-78
2021/07/24 02:26:33;;;;;;;15.48;11.75;;;;;;;;;;4953585;28;20484;-77
2021/07/24 02:29:01;;;;;;;15.68;12.48;;;;;;;;;;4953942;29;20097;-78
2021/07/24 02:31:28;;;;;;;15.75;10.98;;;;;;;;;;4954172;29;20071;-78
2021/07/24 02:33:59;;;;;;;15.95;11.70;;;;;;;;;;4954078;29;20079;-78
2021/07/24 02:36:25;;;;;;;17.48;11.32;;;;;;;;;;4953508;29;20054;-77
2021/07/24 02:38:52;;;;;;;15.98;12.25;;;;;;;;;;4954055;29;20106;-77
2021/07/24 02:41:19;;;;;;;17.45;11.85;;;;;;;;;;4953926;29;20130;-77
2021/07/24 02:43:45;;;;;;;15.07;11.32;;;;;;;;;;4954556;29;20105;-77
2021/07/24 02:46:17;;;;;;;15.18;11.90;;;;;;;;;;4953679;29;20106;-77
2021/07/24 02:48:44;;;;;;;14.52;11.75;;;;;;;;;;4957218;28;20046;-77
2021/07/24 02:51:10;;;;;;;15.10;12.48;;;;;;;;;;4960384;29;20122;-77
2021/07/24 02:53:37;;;;;;;16.80;12.70;;;;;;;;;;4960273;28;20137;-77
2021/07/24 02:56:04;;;;;;;17.00;12.57;;;;;;;;;;4959589;28;20083;-77
2021/07/24 02:58:30;;;;;;;16.45;11.75;;;;;;;;;;4960435;29;20137;-77
2021/07/24 03:00:57;;;;;;;16.08;12.05;;;;;;;;;;4960400;28;20075;-77
2021/07/24 03:03:25;;;;;;;15.50;12.02;;;;;;;;;;4960024;28;20563;-77
2021/07/24 03:05:52;;;;;;;14.98;11.75;;;;;;;;;;4959803;28;20075;-77
2021/07/24 03:08:19;;;;;;;18.98;12.52;;;;;;;;;;4960056;28;20516;-77
2021/07/24 03:10:45;;;;;;;17.23;12.70;;;;;;;;;;4960746;28;20105;-77
2021/07/24 03:13:12;;;;;;;16.48;12.85;;;;;;;;;;4960214;28;20115;-78
2021/07/24 03:15:39;;;;;;;15.88;11.90;;;;;;;;;;4959958;28;20303;-77
2021/07/24 03:18:05;;;;;;;17.55;12.25;;;;;;;;;;4960098;29;20087;-77
2021/07/24 03:20:33;;;;;;;15.70;12.38;;;;;;;;;;4960266;28;20093;-78
2021/07/24 03:23:01;;;;;;;15.98;12.63;;;;;;;;;;4960290;29;20047;-77
2021/07/24 03:25:27;;;;;;;18.13;13.32;;;;;;;;;;4959663;28;20105;-78
2021/07/24 03:27:54;;;;;;;19.20;12.35;;;;;;;;;;4960612;29;20058;-78
2021/07/24 03:30:21;;;;;;;17.90;12.90;;;;;;;;;;4960572;29;20085;-77
2021/07/24 03:32:48;;;;;;;15.98;12.20;;;;;;;;;;4961432;28;20078;-77
2021/07/24 03:35:15;;;;;;;15.40;12.82;;;;;;;;;;4963081;29;20052;-77
2021/07/24 03:37:44;;;;;;;15.77;11.88;;;;;;;;;;4968643;29;20043;-77
2021/07/24 03:40:12;;;;;;;16.43;13.00;;;;;;;;;;4969497;28;20074;-77
2021/07/24 03:42:39;;;;;;;17.00;12.77;;;;;;;;;;4971098;29;20051;-77
2021/07/24 03:45:07;;;;;;;17.33;12.48;;;;;;;;;;4964425;28;20054;-77
2021/07/24 03:47:33;;;;;;;17.02;12.98;;;;;;;;;;4963075;29;20082;-77
2021/07/24 03:50:00;;;;;;;17.33;12.52;;;;;;;;;;4960019;29;20086;-77
2021/07/24 03:52:27;;;;;;;16.63;12.50;;;;;;;;;;4961294;29;20054;-78
2021/07/24 03:54:55;;;;;;;16.92;11.43;;;;;;;;;;4963512;29;20055;-78
2021/07/24 03:57:22;;;;;;;16.63;12.30;;;;;;;;;;4964549;29;20071;-79
2021/07/24 03:59:48;;;;;;;16.45;13.07;;;;;;;;;;4962840;28;20054;-78
2021/07/24 04:02:18;;;;;;;16.33;13.52;;;;;;;;;;4960405;29;20114;-79
2021/07/24 04:04:47;;;;;;;;;;;;;;;;;;4960395;28;20130;-78
2021/07/24 04:07:14;;;;;;;17.90;12.88;;;;;;;;;;4961176;28;19974;-78
2021/07/24 04:09:41;;;;;;;18.63;13.13;;;;;;;;;;4962030;28;20047;-79
2021/07/24 04:12:10;;;;;;;16.42;12.43;;;;;;;;;;4960759;28;20098;-78
2021/07/24 04:14:38;;;;;;;18.65;13.98;;;;;;;;;;4961820;29;20086;-78
2021/07/24 04:17:05;;;;;;;17.20;13.40;;;;;;;;;;4961154;29;20082;-78
2021/07/24 04:19:32;;;;;;;16.17;12.80;;;;;;;;;;4960283;29;20055;-78
2021/07/24 04:21:58;;;;;;;17.30;12.95;;;;;;;;;;4960390;29;20067;-79
2021/07/24 04:24:25;;;;;;;17.00;12.88;;;;;;;;;;4960466;29;20055;-78
2021/07/24 04:26:52;;;;;;;16.35;12.02;;;;;;;;;;4960262;29;20474;-79
2021/07/24 04:29:22;;;;;;;16.10;12.70;;;;;;;;;;4960108;28;20078;-78
2021/07/24 04:31:50;;;;;;;20.23;13.80;;;;;;;;;;4958201;29;20047;-78
2021/07/24 04:34:18;;;;;;;15.75;12.88;;;;;;;;;;4957519;29;20578;-78
2021/07/24 04:36:45;;;;;;;15.65;11.20;;;;;;;;;;4957149;29;20055;-77
2021/07/24 04:39:11;;;;;;;17.38;13.43;;;;;;;;;;4957569;29;20055;-78
2021/07/24 04:41:38;;;;;;;16.25;12.75;;;;;;;;;;4958240;28;20083;-77
2021/07/24 04:44:05;;;;;;;16.52;13.15;;;;;;;;;;4958076;29;20078;-77
2021/07/24 04:46:35;;;;;;;19.40;13.07;;;;;;;;;;4957245;29;20527;-78
2021/07/24 04:49:02;;;;;;;;;;;;;;;;;;4958504;29;20086;-77
2021/07/24 04:51:29;;;;;;;18.15;12.57;;;;;;;;;;4958392;29;19946;-77
2021/07/24 04:53:56;;;;;;;17.48;12.15;;;;;;;;;;4960133;29;20043;-78
2021/07/24 04:56:23;;;;;;;18.48;12.90;;;;;;;;;;4959445;29;20083;-78
2021/07/24 04:58:50;;;;;;;17.30;12.52;;;;;;;;;;4959862;29;20070;-78
2021/07/24 05:01:19;;;;;;;18.20;12.65;;;;;;;;;;4958731;29;20051;-77
2021/07/24 05:03:48;;;;;;;19.60;13.55;;;;;;;;;;4957477;28;20089;-78
2021/07/24 05:06:15;;;;;;;15.48;11.88;;;;;;;;;;4957454;28;20055;-78
2021/07/24 05:08:42;;;;;;;17.15;13.13;;;;;;;;;;4955831;28;20081;-77
2021/07/24 05:11:09;;;;;;;19.15;12.65;;;;;;;;;;4956554;28;20464;-77
2021/07/24 05:13:35;;;;;;;17.30;11.88;;;;;;;;;;4955993;28;20102;-76
2021/07/24 05:16:02;;;;;;;16.80;12.82;;;;;;;;;;4954764;29;20082;-77
2021/07/24 05:18:29;;;;;;;16.23;12.20;;;;;;;;;;4955250;29;20564;-79
2021/07/24 05:20:57;;;;;;;17.50;12.13;;;;;;;;;;4955616;29;20086;-78
2021/07/24 05:23:24;;;;;;;17.98;12.18;;;;;;;;;;4955459;29;20079;-79
2021/07/24 05:25:51;;;;;;;17.10;11.93;;;;;;;;;;4954999;29;20114;-78
2021/07/24 05:28:17;;;;;;;18.60;12.93;;;;;;;;;;4955449;29;20051;-77
2021/07/24 05:30:44;;;;;;;16.23;11.95;;;;;;;;;;4955336;29;20083;-78
2021/07/24 05:33:11;;;;;;;17.20;12.40;;;;;;;;;;4954956;29;20398;-78
2021/07/24 05:35:37;;;;;;;19.88;13.10;;;;;;;;;;4954564;29;20129;-78
2021/07/24 05:38:05;;;;;;;17.27;13.00;;;;;;;;;;4955454;29;20083;-78
2021/07/24 05:40:32;;;;;;;16.48;12.35;;;;;;;;;;4955195;28;20051;-78
2021/07/24 05:43:01;;;;;;;17.77;13.43;;;;;;;;;;4955323;29;20047;-78
2021/07/24 05:45:28;;;;;;;19.40;12.60;;;;;;;;;;4954778;29;20137;-79
2021/07/24 05:47:55;;;;;;;19.10;12.93;;;;;;;;;;4955096;28;20227;-77
2021/07/24 05:50:22;;;;;;;17.67;12.57;;;;;;;;;;4955598;28;20098;-78
2021/07/24 05:52:48;;;;;;;16.85;13.32;;;;;;;;;;4957072;29;20114;-77
2021/07/24 05:55:17;;;;;;;18.77;13.15;;;;;;;;;;4956839;29;20079;-77
2021/07/24 05:57:43;;;;;;;18.27;13.23;;;;;;;;;;4956855;29;20082;-77
2021/07/24 06:00:11;;;;;;;17.20;12.65;;;;;;;;;;4956695;29;20156;-77
2021/07/24 06:02:38;;;;;;;17.73;13.27;;;;;;;;;;4956426;28;20476;-77
2021/07/24 06:05:06;;;;;;;19.33;13.20;;;;;;;;;;4955525;28;20079;-78
2021/07/24 06:07:32;;;;;;;16.90;12.63;;;;;;;;;;4957768;28;20075;-77
2021/07/24 06:09:59;;;;;;;19.05;13.38;;;;;;;;;;4956476;28;20548;-77
2021/07/24 06:12:27;;;;;;;19.13;12.93;;;;;;;;;;4956133;28;20560;-77
2021/07/24 06:14:54;;;;;;;19.02;13.07;;;;;;;;;;4955424;29;20466;-78
2021/07/24 06:17:21;;;;;;;19.80;14.10;;;;;;;;;;4955864;28;20070;-77
2021/07/24 06:19:48;;;;;;;19.75;12.93;;;;;;;;;;4956057;29;20456;-77
2021/07/24 06:22:14;;;;;;;17.95;13.00;;;;;;;;;;4955280;28;20047;-78
2021/07/24 06:24:41;;;;;;;19.05;13.45;;;;;;;;;;4954781;28;20098;-77
2021/07/24 06:27:08;;;;;;;18.00;12.55;;;;;;;;;;4956442;29;20110;-77
2021/07/24 06:29:36;;;;;;;17.40;12.93;;;;;;;;;;4957260;29;20090;-77
2021/07/24 06:32:03;;;;;;;18.63;13.00;;;;;;;;;;4959910;29;20054;-77
2021/07/24 06:34:32;;;;;;;17.13;12.57;;;;;;;;;;4965416;29;20110;-77
2021/07/24 06:37:00;;;;;;;20.00;12.93;;;;;;;;;;4958425;28;20075;-77
2021/07/24 06:39:27;;;;;;;19.00;12.23;;;;;;;;;;4956694;29;20492;-77
2021/07/24 06:41:54;;;;;;;19.33;13.10;;;;;;;;;;4955605;28;20522;-77
2021/07/24 06:44:21;;;;;;;17.58;13.02;;;;;;;;;;4955377;29;20078;-77
2021/07/24 06:46:49;;;;;;;20.25;13.40;;;;;;;;;;4955527;29;20062;-77
2021/07/24 06:49:16;;;;;;;15.75;12.52;;;;;;;;;;4956624;29;20078;-77
2021/07/24 06:51:43;;;;;;;18.90;13.68;;;;;;;;;;4956662;28;20044;-77
2021/07/24 06:54:09;;;;;;;22.38;14.90;;;;;;;;;;4956113;29;20081;-78
2021/07/24 06:56:36;;;;;;;18.60;12.85;;;;;;;;;;4955667;28;20088;-77
2021/07/24 06:59:03;;;;;;;18.23;13.43;;;;;;;;;;4956538;29;20058;-77
2021/07/24 07:01:29;;;;;;;19.35;12.63;;;;;;;;;;4955583;29;20066;-77
2021/07/24 07:03:57;;;;;;;18.08;13.25;;;;;;;;;;4955792;28;20170;-78
2021/07/24 07:06:24;;;;;;;19.02;13.60;;;;;;;;;;4954669;28;20129;-78
2021/07/24 07:08:51;;;;;;;18.77;13.23;;;;;;;;;;4955640;28;20485;-78
2021/07/24 07:11:17;;;;;;;18.38;13.07;;;;;;;;;;4956531;28;20085;-76
2021/07/24 07:13:44;;;;;;;20.52;13.68;;;;;;;;;;4954988;29;20047;-77
2021/07/24 07:16:11;;;;;;;19.70;13.82;;;;;;;;;;4954657;29;20047;-77
2021/07/24 07:18:38;;;;;;;18.02;13.35;;;;;;;;;;4955150;29;20055;-77
2021/07/24 07:21:09;;;;;;;17.85;13.48;;;;;;;;;;4955820;29;20598;-78
2021/07/24 07:26:58;;;;;;;20.48;14.50;;;;;;;;;;4950723;28;20042;-77
2021/07/24 07:32:46;;;;;;;19.35;13.75;;;;;;;;;;4953553;28;20097;-79
2021/07/24 07:35:13;;;;;;;17.10;13.30;;;;;;;;;;4960615;28;20512;-79
2021/07/24 07:37:50;;;;;;;18.58;13.10;;;;;;;;;;4963421;29;20075;-79
2021/07/24 07:40:17;;;;;;;17.63;13.50;;;;;;;;;;4962796;29;20394;-79
2021/07/24 07:42:44;;;;;;;17.67;13.13;;;;;;;;;;4960041;29;20074;-78
2021/07/24 07:45:11;;;;;;;18.85;14.23;;;;;;;;;;4962578;29;20126;-79
2021/07/24 07:47:38;;;;;;;17.92;14.50;;;;;;;;;;4959113;29;20051;-78
2021/07/24 07:50:05;;;;;;;17.73;13.95;;;;;;;;;;4961089;29;20082;-78
2021/07/24 07:52:32;;;;;;;18.83;13.40;;;;;;;;;;4958670;29;20051;-78
2021/07/24 07:55:00;;;;;;;20.75;14.73;;;;;;;;;;4957582;29;20058;-78
2021/07/24 07:57:29;;;;;;;18.27;14.50;;;;;;;;;;4957191;29;20086;-78
2021/07/24 07:59:56;;;;;;;18.52;13.38;;;;;;;;;;4958130;29;20121;-78
2021/07/24 08:02:23;;;;;;;17.50;13.20;;;;;;;;;;4956302;29;20130;-77
2021/07/24 08:04:49;;;;;;;19.20;14.15;;;;;;;;;;4957591;28;20051;-78
2021/07/24 08:07:17;;;;;;;18.88;13.38;;;;;;;;;;4957537;28;20114;-76
2021/07/24 08:09:43;;;;;;;19.48;13.25;;;;;;;;;;4957177;28;20500;-78
2021/07/24 08:12:12;;;;;;;17.85;13.52;;;;;;;;;;4956895;28;20086;-77
2021/07/24 08:14:39;;;;;;;21.75;14.70;;;;;;;;;;4956268;28;20126;-78
2021/07/24 08:17:07;;;;;;;20.10;14.90;;;;;;;;;;4956767;28;20476;-78
2021/07/24 08:19:35;;;;;;;20.90;15.48;;;;;;;;;;4956653;28;20051;-77
2021/07/24 08:22:01;;;;;;;19.17;14.15;;;;;;;;;;4957350;28;20051;-78
2021/07/24 08:24:28;;;;;;;22.13;15.75;;;;;;;;;;4958745;28;20079;-77
2021/07/24 08:26:55;;;;;;;21.25;14.50;;;;;;;;;;4956933;28;20051;-77
2021/07/24 08:29:23;;;;;;;19.83;14.85;;;;;;;;;;4958248;28;20050;-76
2021/07/24 08:31:50;;;;;;;19.58;15.20;;;;;;;;;;4956718;28;20075;-78
2021/07/24 08:34:16;;;;;;;22.77;17.40;;;;;;;;;;4956567;28;20130;-77
2021/07/24 08:37:00;;;;;;;21.20;15.93;;;;;;;;;;4955361;28;20043;-76
2021/07/24 08:39:27;;;;;;;20.08;14.55;;;;;;;;;;4953590;29;20130;-78
2021/07/24 08:41:54;;;;;;;19.95;14.35;;;;;;;;;;4956649;29;20090;-77
2021/07/24 08:44:20;;;;;;;18.55;14.00;;;;;;;;;;4958923;29;20055;-77
2021/07/24 08:46:48;;;;;;;21.63;16.05;;;;;;;;;;4955818;28;20083;-79
2021/07/24 08:49:15;;;;;;;20.70;14.73;;;;;;;;;;4956694;28;20079;-77
2021/07/24 08:51:43;;;;;;;24.27;18.52;;;;;;;;;;4956837;29;20133;-77
2021/07/24 08:54:10;;;;;;;19.42;15.98;;;;;;;;;;4956392;29;20138;-77
2021/07/24 09:00:04;;;;;;;18.48;14.27;;;;;;;;;;4968860;28;20077;-78
2021/07/24 09:02:36;;;;;;;21.58;17.10;;;;;;;;;;4975243;28;20460;-78
2021/07/24 09:05:05;;;;;;;21.90;15.77;;;;;;;;;;4975232;28;20471;-78
2021/07/24 09:07:33;;;;;;;18.90;14.38;;;;;;;;;;4975203;28;20515;-77
2021/07/24 09:13:21;;;;;;;22.85;15.65;;;;;;;;;;4955236;28;20061;-78
2021/07/24 09:15:48;;;;;;;27.48;16.10;;;;;;;;;;4956287;28;20051;-78
2021/07/24 09:18:16;;;;;;;23.75;14.63;;;;;;;;;;4956491;29;20086;-78
2021/07/24 09:20:45;;;;;;;18.23;14.40;;;;;;;;;;4956350;29;20087;-76
2021/07/24 09:23:25;;;;;;;20.90;14.75;;;;;;;;;;4955837;29;20118;-77
2021/07/24 09:33:27;;;;;;;21.25;15.38;;;;;;;;;;4957754;29;20042;-77
2021/07/24 09:35:56;;;;;;;16.90;13.93;;;;;;;;;;4970931;28;20074;-76
2021/07/24 09:38:38;;;;;;;20.70;14.40;;;;;;;;;;4974723;28;20082;-76
2021/07/24 09:48:15;;;;;;;19.38;14.05;;;;;;;;;;4955483;29;20045;-76
2021/07/24 09:50:47;;;;;;;18.30;12.18;;;;;;;;;;4936217;29;20059;-77
2021/07/24 09:53:15;;;;;;;17.40;12.63;;;;;;;;;;4936083;29;20051;-78
2021/07/24 09:55:47;;;;;;;16.50;12.65;;;;;;;;;;4935816;29;20505;-79
2021/07/24 09:58:20;;;;;;;16.60;12.23;;;;;;;;;;4937854;29;20562;-78
2021/07/24 10:04:10;;;;;;;16.30;11.85;;;;;;;;;;4946457;29;20042;-84
2021/07/24 10:06:42;;;;;;;18.30;12.68;;;;;;;;;;4959919;28;20051;-78
2021/07/24 10:09:11;;;;;;;17.52;12.10;;;;;;;;;;4960571;28;20047;-77
2021/07/24 10:11:38;;;;;;;16.40;11.48;;;;;;;;;;4964444;29;20043;-80
2021/07/24 10:14:05;;;;;;;17.80;12.05;;;;;;;;;;4960903;28;20398;-78
2021/07/24 10:16:32;;;;;;;16.35;12.38;;;;;;;;;;4958630;29;20058;-77
2021/07/24 10:18:59;;;;;;;14.55;11.40;;;;;;;;;;4962968;29;20059;-77
2021/07/24 10:21:26;;;;;;;17.63;12.23;;;;;;;;;;4957281;28;20093;-77
2021/07/24 10:23:53;;;;;;;19.35;12.13;;;;;;;;;;4957744;28;20074;-77
2021/07/24 10:26:26;;;;;;;16.80;12.10;;;;;;;;;;4955817;28;20043;-77
2021/07/24 10:29:00;;;;;;;18.27;12.90;;;;;;;;;;4956101;29;20113;-78
2021/07/24 10:31:33;;;;;;;16.42;11.65;;;;;;;;;;4956332;29;20106;-75
2021/07/24 10:34:02;;;;;;;17.33;12.32;;;;;;;;;;4955685;29;20090;-77
2021/07/24 10:36:38;;;;;;;18.02;13.95;;;;;;;;;;4955315;29;20082;-77
2021/07/24 10:39:07;;;;;;;18.35;12.95;;;;;;;;;;4954594;28;20082;-77
2021/07/24 10:41:45;;;;;;;19.92;14.13;;;;;;;;;;4956454;29;20048;-78
2021/07/24 10:44:17;;;;;;;20.50;14.45;;;;;;;;;;4956931;29;20118;-78
2021/07/24 10:47:11;;;;;;;19.38;13.25;;;;;;;;;;4955989;29;20125;-76
2021/07/24 10:49:58;;;;;;;20.67;13.65;;;;;;;;;;4956497;29;20698;-78
2021/07/24 10:52:26;;;;;;;17.65;12.85;;;;;;;;;;4957826;29;20062;-78
2021/07/24 10:55:15;;;;;;;18.80;13.68;;;;;;;;;;4956112;29;20051;-78
2021/07/24 10:58:08;;;;;;;17.90;12.93;;;;;;;;;;4956494;29;20188;-77
2021/07/24 11:00:52;;;;;;;19.08;12.65;;;;;;;;;;4957801;29;20305;-77
2021/07/24 11:03:46;;;;;;;19.05;13.30;;;;;;;;;;4957237;28;20083;-78
2021/07/24 11:06:23;;;;;;;18.35;13.60;;;;;;;;;;4957911;28;20055;-78
2021/07/24 11:09:28;;;;;;;16.17;11.98;;;;;;;;;;4959539;28;20047;-78
2021/07/24 11:12:07;;;;;;;16.75;13.13;;;;;;;;;;4962111;28;20051;-78
2021/07/24 11:14:53;;;;;;;17.75;12.70;;;;;;;;;;4962795;28;20047;-77
2021/07/24 11:17:20;;;;;;;18.27;12.95;;;;;;;;;;4963337;29;20047;-78
2021/07/24 11:20:35;;;;;;;18.70;12.75;;;;;;;;;;4963865;28;20044;-78
2021/07/24 11:23:06;;;;;;;19.52;12.98;;;;;;;;;;4959446;29;20055;-76
2021/07/24 11:25:37;;;;;;;18.25;13.02;;;;;;;;;;4957666;28;20079;-76
2021/07/24 11:28:05;;;;;;;21.17;12.65;;;;;;;;;;4957660;29;20055;-76
2021/07/24 11:30:34;;;;;;;18.10;13.07;;;;;;;;;;4957320;29;20513;-76
2021/07/24 11:33:00;;;;;;;15.63;12.43;;;;;;;;;;4957715;29;20082;-77
2021/07/24 11:35:30;;;;;;;16.58;11.82;;;;;;;;;;4957611;28;20102;-77
2021/07/24 11:37:57;;;;;;;18.02;13.27;;;;;;;;;;4957704;29;20054;-76
2021/07/24 11:40:26;;;;;;;20.23;13.02;;;;;;;;;;4976796;29;20079;-76
2021/07/24 11:43:01;;;;;;;18.73;12.35;;;;;;;;;;4980492;29;20044;-76
2021/07/24 11:45:29;;;;;;;17.65;13.50;;;;;;;;;;4980279;29;20035;-76
2021/07/24 11:48:23;;;;;;;16.17;12.80;;;;;;;;;;4979410;29;20054;-76
2021/07/24 11:51:00;;;;;;;17.67;12.35;;;;;;;;;;4966062;28;20044;-76
2021/07/24 11:53:27;;;;;;;17.05;11.90;;;;;;;;;;4958063;29;20051;-77
2021/07/24 11:55:54;;;;;;;16.98;12.63;;;;;;;;;;4957498;28;20075;-77
2021/07/24 11:58:21;;;;;;;16.20;11.63;;;;;;;;;;4957368;29;20082;-77
2021/07/24 12:00:50;;;;;;;17.35;11.90;;;;;;;;;;4956901;29;20051;-76
2021/07/24 12:03:19;;;;;;;16.47;12.20;;;;;;;;;;4957444;28;20402;-77
2021/07/24 12:05:49;;;;;;;15.57;11.90;;;;;;;;;;4956453;28;20381;-76
2021/07/24 12:08:18;;;;;;;16.38;12.57;;;;;;;;;;4957104;28;20047;-77
2021/07/24 12:10:47;;;;;;;16.92;12.27;;;;;;;;;;4956649;28;20078;-77
2021/07/24 12:13:18;;;;;;;16.90;13.25;;;;;;;;;;4957118;28;20130;-77
2021/07/24 12:16:03;;;;;;;23.15;12.90;;;;;;;;;;4956623;29;20079;-77
2021/07/24 12:18:35;;;;;;;18.13;13.27;;;;;;;;;;4956833;29;20085;-77
2021/07/24 12:21:15;;;;;;;15.60;12.68;;;;;;;;;;4955715;28;20137;-77
2021/07/24 12:23:54;;;;;;;;;;;;;;;;;;4957013;29;20134;-77
2021/07/24 12:26:23;;;;;;;16.33;12.27;;;;;;;;;;4956528;28;19984;-76
2021/07/24 12:28:50;;;;;;;16.27;12.05;;;;;;;;;;4957480;29;20051;-76
2021/07/24 12:31:24;;;;;;;16.15;12.40;;;;;;;;;;4958227;28;20074;-76
2021/07/24 12:33:53;;;;;;;14.30;11.90;;;;;;;;;;4957290;29;20055;-76
2021/07/24 12:36:23;;;;;;;14.48;11.65;;;;;;;;;;4956204;29;20078;-77
2021/07/24 12:38:50;;;;;;;;;;;;;;;;;;4956807;29;20047;-76
2021/07/24 12:41:17;;;;;;;16.85;12.60;;;;;;;;;;4956177;29;20392;-77
2021/07/24 12:44:04;;;;;;;15.80;12.13;;;;;;;;;;4956206;29;20055;-77
2021/07/24 12:46:30;;;;;;;16.05;12.20;;;;;;;;;;4956563;29;20142;-75
2021/07/24 12:48:57;;;;;;;17.17;12.18;;;;;;;;;;4956353;29;20087;-77
2021/07/24 12:51:34;;;;;;;17.55;12.90;;;;;;;;;;4955930;29;20048;-76
2021/07/24 12:54:12;;;;;;;16.52;11.95;;;;;;;;;;4956351;29;20449;-76
2021/07/24 12:56:39;;;;;;;15.15;12.32;;;;;;;;;;4956002;29;20047;-75
2021/07/24 12:59:06;;;;;;;17.05;12.10;;;;;;;;;;4956006;29;20048;-77
2021/07/24 13:01:33;;;;;;;17.95;12.93;;;;;;;;;;4955976;29;20106;-77
2021/07/24 13:04:00;;;;;;;14.55;11.98;;;;;;;;;;4957518;28;20523;-77
2021/07/24 13:06:31;;;;;;;16.98;12.43;;;;;;;;;;4957214;28;20083;-77
2021/07/24 13:08:59;;;;;;;14.60;12.00;;;;;;;;;;4957110;28;20087;-77
2021/07/24 13:11:26;;;;;;;15.18;12.18;;;;;;;;;;4957324;28;20053;-77
2021/07/24 13:13:53;;;;;;;15.93;12.30;;;;;;;;;;4957582;29;20489;-76
2021/07/24 13:16:19;;;;;;;16.88;12.80;;;;;;;;;;4957021;29;20098;-76
2021/07/24 13:18:47;;;;;;;16.42;12.10;;;;;;;;;;4956241;28;20564;-76
2021/07/24 13:21:13;;;;;;;17.05;11.95;;;;;;;;;;4957604;29;20051;-78
2021/07/24 13:23:42;;;;;;;14.45;11.60;;;;;;;;;;4957855;28;20417;-76
2021/07/24 13:28:50;;;;;;;15.57;12.77;;;;;;;;;;4957389;29;20284;-76
2021/07/24 13:31:16;;;;;;;16.05;12.35;;;;;;;;;;4958182;29;20078;-77
2021/07/24 13:33:43;;;;;;;14.38;11.63;;;;;;;;;;4956261;28;20066;-76
2021/07/24 13:36:12;;;;;;;17.13;12.25;;;;;;;;;;4956280;29;20089;-77
2021/07/24 13:38:40;;;;;;;16.95;12.73;;;;;;;;;;4958015;29;20048;-76
2021/07/24 13:41:08;;;;;;;17.30;12.32;;;;;;;;;;4956427;29;20501;-78
2021/07/24 13:43:34;;;;;;;15.80;11.48;;;;;;;;;;4956888;28;20086;-78
2021/07/24 13:46:01;;;;;;;15.82;12.20;;;;;;;;;;4956198;29;20102;-77
2021/07/24 13:48:28;;;;;;;18.05;12.13;;;;;;;;;;4955541;29;20075;-76
2021/07/24 13:50:54;;;;;;;17.75;13.43;;;;;;;;;;4955337;28;20490;-77
2021/07/24 13:53:21;;;;;;;18.65;13.77;;;;;;;;;;4955054;29;20047;-77
2021/07/24 13:55:49;;;;;;;16.90;13.60;;;;;;;;;;4954612;29;20102;-77
2021/07/24 13:58:17;;;;;;;20.00;16.55;;;;;;;;;;4954781;29;20568;-77
2021/07/24 14:00:43;;;;;;;16.50;14.35;;;;;;;;;;4954694;29;20048;-77
2021/07/24 14:03:10;;;;;;;19.45;14.13;;;;;;;;;;4954827;28;20086;-75
2021/07/24 14:05:37;;;;;;;15.18;13.00;;;;;;;;;;4954670;28;20047;-77
2021/07/24 14:08:04;;;;;;;17.30;12.63;;;;;;;;;;4954879;28;20094;-76
2021/07/24 14:10:31;;;;;;;17.17;13.68;;;;;;;;;;4954745;28;20090;-76
2021/07/24 14:12:58;;;;;;;17.90;13.52;;;;;;;;;;4954472;28;20059;-78
2021/07/24 14:15:26;;;;;;;16.23;13.60;;;;;;;;;;4954434;29;20520;-77
2021/07/24 14:17:53;;;;;;;18.90;14.23;;;;;;;;;;4954730;29;20079;-78
2021/07/24 14:20:20;;;;;;;16.27;13.32;;;;;;;;;;4954701;28;20082;-76
2021/07/24 14:22:46;;;;;;;16.70;13.30;;;;;;;;;;4954602;29;20102;-76
2021/07/24 14:25:14;;;;;;;18.88;13.55;;;;;;;;;;4954188;29;20536;-76
2021/07/24 14:27:40;;;;;;;18.42;13.90;;;;;;;;;;4955210;29;20141;-76
2021/07/24 14:30:08;;;;;;;16.30;12.80;;;;;;;;;;4954693;29;20086;-76
2021/07/24 14:32:36;;;;;;;16.90;13.07;;;;;;;;;;4954514;29;20079;-76
2021/07/24 14:35:03;;;;;;;16.25;12.15;;;;;;;;;;4954463;29;20082;-77
2021/07/24 14:37:30;;;;;;;17.70;13.02;;;;;;;;;;4954462;29;20102;-78
2021/07/24 14:39:57;;;;;;;15.65;13.02;;;;;;;;;;4953627;29;20079;-77
2021/07/24 14:42:29;;;;;;;18.52;13.63;;;;;;;;;;4953966;29;20082;-76
2021/07/24 14:44:57;;;;;;;16.10;12.93;;;;;;;;;;4951655;28;20079;-77
2021/07/24 14:47:24;;;;;;;16.20;12.68;;;;;;;;;;4953908;28;20051;-75
2021/07/24 14:49:54;;;;;;;17.23;13.25;;;;;;;;;;4943294;28;20134;-77
2021/07/24 14:52:22;;;;;;;18.05;13.27;;;;;;;;;;4953949;28;20052;-78
2021/07/24 14:54:49;;;;;;;16.52;13.05;;;;;;;;;;4954313;29;20039;-77
2021/07/24 14:57:17;;;;;;;18.73;14.10;;;;;;;;;;4954006;29;20061;-77
2021/07/24 14:59:43;;;;;;;19.27;14.45;;;;;;;;;;4954076;28;20043;-76
2021/07/24 15:02:10;;;;;;;19.67;14.25;;;;;;;;;;4950746;29;20075;-77
2021/07/24 15:04:37;;;;;;;17.60;14.35;;;;;;;;;;4954581;29;20082;-77
2021/07/24 15:07:05;;;;;;;17.30;14.10;;;;;;;;;;4954516;28;20080;-77
2021/07/24 15:09:32;;;;;;;18.58;15.57;;;;;;;;;;4954629;29;20043;-78